sensor_id;sensor_type;location;lat;lon;timestamp;temperature;humidity
23377;DHT22;14353;46.070;13.222;2022-09-27T00:00:37;21.70;51.40
23377;DHT22;14353;46.070;13.222;2022-09-27T00:03:03;21.80;51.40
23377;DHT22;14353;46.070;13.222;2022-09-27T00:05:29;21.70;51.40
23377;DHT22;14353;46.070;13.222;2022-09-27T00:07:56;21.70;51.40
23377;DHT22;14353;46.070;13.222;2022-09-27T00:10:22;21.70;51.40
23377;DHT22;14353;46.070;13.222;2022-09-27T00:12:48;21.70;51.40
23377;DHT22;14353;46.070;13.222;2022-09-27T00:15:14;21.70;51.40
23377;DHT22;14353;46.070;13.222;2022-09-27T00:17:41;21.80;51.40
23377;DHT22;14353;46.070;13.222;2022-09-27T00:20:10;21.70;51.40
23377;DHT22;14353;46.070;13.222;2022-09-27T00:22:36;21.70;51.40
23377;DHT22;14353;46.070;13.222;2022-09-27T00:25:03;21.70;51.40
23377;DHT22;14353;46.070;13.222;2022-09-27T00:27:32;21.70;51.40
23377;DHT22;14353;46.070;13.222;2022-09-27T00:29:58;21.70;51.40
23377;DHT22;14353;46.070;13.222;2022-09-27T00:32:24;21.70;51.40
23377;DHT22;14353;46.070;13.222;2022-09-27T00:34:50;21.70;51.40
23377;DHT22;14353;46.070;13.222;2022-09-27T00:37:17;21.70;51.40
23377;DHT22;14353;46.070;13.222;2022-09-27T00:39:46;21.70;51.40
23377;DHT22;14353;46.070;13.222;2022-09-27T00:42:12;21.70;51.40
23377;DHT22;14353;46.070;13.222;2022-09-27T00:47:29;21.70;51.40
23377;DHT22;14353;46.070;13.222;2022-09-27T00:50:13;21.70;51.40
23377;DHT22;14353;46.070;13.222;2022-09-27T00:52:47;21.70;51.40
23377;DHT22;14353;46.070;13.222;2022-09-27T00:55:22;21.70;51.40
23377;DHT22;14353;46.070;13.222;2022-09-27T00:57:52;21.70;51.40
23377;DHT22;14353;46.070;13.222;2022-09-27T01:00:18;21.70;51.40
23377;DHT22;14353;46.070;13.222;2022-09-27T01:02:52;21.70;51.40
23377;DHT22;14353;46.070;13.222;2022-09-27T01:05:22;21.70;51.40
23377;DHT22;14353;46.070;13.222;2022-09-27T01:07:49;21.60;51.40
23377;DHT22;14353;46.070;13.222;2022-09-27T01:10:18;21.70;51.40
23377;DHT22;14353;46.070;13.222;2022-09-27T01:18:33;21.60;51.40
23377;DHT22;14353;46.070;13.222;2022-09-27T01:24:21;21.60;51.40
23377;DHT22;14353;46.070;13.222;2022-09-27T01:43:57;21.70;51.40
23377;DHT22;14353;46.070;13.222;2022-09-27T01:46:38;21.60;51.30
23377;DHT22;14353;46.070;13.222;2022-09-27T01:49:14;21.60;51.40
23377;DHT22;14353;46.070;13.222;2022-09-27T01:51:46;21.60;51.40
23377;DHT22;14353;46.070;13.222;2022-09-27T01:54:18;21.60;51.40
23377;DHT22;14353;46.070;13.222;2022-09-27T01:56:49;21.60;51.40
23377;DHT22;14353;46.070;13.222;2022-09-27T01:59:21;21.60;51.40
23377;DHT22;14353;46.070;13.222;2022-09-27T02:01:51;21.60;51.40
23377;DHT22;14353;46.070;13.222;2022-09-27T02:04:23;21.60;51.40
23377;DHT22;14353;46.070;13.222;2022-09-27T02:06:56;21.60;51.40
23377;DHT22;14353;46.070;13.222;2022-09-27T02:09:34;21.60;51.40
23377;DHT22;14353;46.070;13.222;2022-09-27T02:12:06;21.60;51.40
23377;DHT22;14353;46.070;13.222;2022-09-27T02:14:52;21.60;51.40
23377;DHT22;14353;46.070;13.222;2022-09-27T02:20:34;21.60;51.40
23377;DHT22;14353;46.070;13.222;2022-09-27T02:25:55;21.60;51.40
23377;DHT22;14353;46.070;13.222;2022-09-27T02:29:04;21.60;51.40
23377;DHT22;14353;46.070;13.222;2022-09-27T02:31:36;21.50;51.40
23377;DHT22;14353;46.070;13.222;2022-09-27T02:34:09;21.60;51.40
23377;DHT22;14353;46.070;13.222;2022-09-27T02:36:36;21.50;51.40
23377;DHT22;14353;46.070;13.222;2022-09-27T02:39:03;21.60;51.40
23377;DHT22;14353;46.070;13.222;2022-09-27T02:41:29;21.60;51.40
23377;DHT22;14353;46.070;13.222;2022-09-27T02:44:00;21.60;51.40
23377;DHT22;14353;46.070;13.222;2022-09-27T02:49:16;21.50;51.40
23377;DHT22;14353;46.070;13.222;2022-09-27T02:54:51;21.50;51.40
23377;DHT22;14353;46.070;13.222;2022-09-27T03:00:05;21.60;51.40
23377;DHT22;14353;46.070;13.222;2022-09-27T03:06:21;21.50;51.40
23377;DHT22;14353;46.070;13.222;2022-09-27T03:08:48;21.50;51.40
23377;DHT22;14353;46.070;13.222;2022-09-27T03:11:15;21.50;51.40
23377;DHT22;14353;46.070;13.222;2022-09-27T03:13:46;21.60;51.40
23377;DHT22;14353;46.070;13.222;2022-09-27T03:16:15;21.60;51.40
23377;DHT22;14353;46.070;13.222;2022-09-27T03:18:41;21.50;51.40
23377;DHT22;14353;46.070;13.222;2022-09-27T03:21:07;21.50;51.30
23377;DHT22;14353;46.070;13.222;2022-09-27T03:23:33;21.50;51.40
23377;DHT22;14353;46.070;13.222;2022-09-27T03:25:59;21.50;51.40
23377;DHT22;14353;46.070;13.222;2022-09-27T03:28:25;21.50;51.30
23377;DHT22;14353;46.070;13.222;2022-09-27T03:30:54;21.50;51.30
23377;DHT22;14353;46.070;13.222;2022-09-27T03:33:23;21.50;51.30
23377;DHT22;14353;46.070;13.222;2022-09-27T03:35:52;21.50;51.30
23377;DHT22;14353;46.070;13.222;2022-09-27T03:38:20;21.50;51.30
23377;DHT22;14353;46.070;13.222;2022-09-27T03:40:46;21.50;51.50
23377;DHT22;14353;46.070;13.222;2022-09-27T03:43:15;21.50;51.30
23377;DHT22;14353;46.070;13.222;2022-09-27T03:45:42;21.50;51.30
23377;DHT22;14353;46.070;13.222;2022-09-27T03:48:12;21.50;51.30
23377;DHT22;14353;46.070;13.222;2022-09-27T03:50:38;21.50;51.30
23377;DHT22;14353;46.070;13.222;2022-09-27T03:53:04;21.50;51.30
23377;DHT22;14353;46.070;13.222;2022-09-27T03:55:37;21.50;51.30
23377;DHT22;14353;46.070;13.222;2022-09-27T03:58:05;21.50;51.30
23377;DHT22;14353;46.070;13.222;2022-09-27T04:00:31;21.50;51.30
23377;DHT22;14353;46.070;13.222;2022-09-27T04:02:58;21.50;51.30
23377;DHT22;14353;46.070;13.222;2022-09-27T04:05:26;21.50;51.30
23377;DHT22;14353;46.070;13.222;2022-09-27T04:07:52;21.50;51.30
23377;DHT22;14353;46.070;13.222;2022-09-27T04:10:18;21.50;51.40
23377;DHT22;14353;46.070;13.222;2022-09-27T04:12:44;21.40;51.20
23377;DHT22;14353;46.070;13.222;2022-09-27T04:15:11;21.50;51.30
23377;DHT22;14353;46.070;13.222;2022-09-27T04:17:39;21.50;51.30
23377;DHT22;14353;46.070;13.222;2022-09-27T04:20:06;21.40;51.20
23377;DHT22;14353;46.070;13.222;2022-09-27T04:22:38;21.50;51.30
23377;DHT22;14353;46.070;13.222;2022-09-27T04:25:05;21.50;51.40
23377;DHT22;14353;46.070;13.222;2022-09-27T04:27:31;21.50;51.30
23377;DHT22;14353;46.070;13.222;2022-09-27T04:29:57;21.50;51.30
23377;DHT22;14353;46.070;13.222;2022-09-27T04:32:22;21.40;51.20
23377;DHT22;14353;46.070;13.222;2022-09-27T04:34:48;21.50;51.30
23377;DHT22;14353;46.070;13.222;2022-09-27T04:37:36;21.50;51.30
23377;DHT22;14353;46.070;13.222;2022-09-27T04:40:02;21.40;51.20
23377;DHT22;14353;46.070;13.222;2022-09-27T04:42:28;21.40;51.30
23377;DHT22;14353;46.070;13.222;2022-09-27T04:44:54;21.40;51.20
23377;DHT22;14353;46.070;13.222;2022-09-27T04:47:20;21.50;51.30
23377;DHT22;14353;46.070;13.222;2022-09-27T04:49:47;21.50;51.30
23377;DHT22;14353;46.070;13.222;2022-09-27T04:52:14;21.50;51.30
23377;DHT22;14353;46.070;13.222;2022-09-27T04:54:40;21.50;51.30
23377;DHT22;14353;46.070;13.222;2022-09-27T04:57:06;21.50;51.30
23377;DHT22;14353;46.070;13.222;2022-09-27T04:59:35;21.40;51.20
23377;DHT22;14353;46.070;13.222;2022-09-27T05:02:01;21.40;51.20
23377;DHT22;14353;46.070;13.222;2022-09-27T05:04:27;21.40;51.20
23377;DHT22;14353;46.070;13.222;2022-09-27T05:06:54;21.50;51.20
23377;DHT22;14353;46.070;13.222;2022-09-27T05:09:20;21.40;51.10
23377;DHT22;14353;46.070;13.222;2022-09-27T05:11:46;21.40;51.20
23377;DHT22;14353;46.070;13.222;2022-09-27T05:14:12;21.40;51.10
23377;DHT22;14353;46.070;13.222;2022-09-27T05:16:38;21.40;51.20
23377;DHT22;14353;46.070;13.222;2022-09-27T05:19:04;21.40;51.10
23377;DHT22;14353;46.070;13.222;2022-09-27T05:21:33;21.40;51.20
23377;DHT22;14353;46.070;13.222;2022-09-27T05:24:01;21.40;51.20
23377;DHT22;14353;46.070;13.222;2022-09-27T05:26:27;21.40;51.20
23377;DHT22;14353;46.070;13.222;2022-09-27T05:28:53;21.40;51.20
23377;DHT22;14353;46.070;13.222;2022-09-27T05:31:19;21.40;51.20
23377;DHT22;14353;46.070;13.222;2022-09-27T05:33:45;21.40;51.20
23377;DHT22;14353;46.070;13.222;2022-09-27T05:36:11;21.40;51.50
23377;DHT22;14353;46.070;13.222;2022-09-27T05:38:43;21.40;51.80
23377;DHT22;14353;46.070;13.222;2022-09-27T05:41:09;21.40;52.10
23377;DHT22;14353;46.070;13.222;2022-09-27T05:43:38;21.40;52.40
23377;DHT22;14353;46.070;13.222;2022-09-27T05:46:04;21.40;52.50
23377;DHT22;14353;46.070;13.222;2022-09-27T05:48:30;21.40;53.20
23377;DHT22;14353;46.070;13.222;2022-09-27T05:50:57;21.40;53.10
23377;DHT22;14353;46.070;13.222;2022-09-27T05:53:25;21.40;53.30
23377;DHT22;14353;46.070;13.222;2022-09-27T05:56:00;21.40;53.50
23377;DHT22;14353;46.070;13.222;2022-09-27T05:58:27;21.40;53.50
23377;DHT22;14353;46.070;13.222;2022-09-27T06:00:56;21.40;53.60
23377;DHT22;14353;46.070;13.222;2022-09-27T06:03:35;21.40;53.60
23377;DHT22;14353;46.070;13.222;2022-09-27T06:06:10;21.40;53.80
23377;DHT22;14353;46.070;13.222;2022-09-27T06:08:40;21.40;53.90
23377;DHT22;14353;46.070;13.222;2022-09-27T06:11:11;21.40;54.90
23377;DHT22;14353;46.070;13.222;2022-09-27T06:13:40;21.40;54.50
23377;DHT22;14353;46.070;13.222;2022-09-27T06:16:10;21.50;54.80
23377;DHT22;14353;46.070;13.222;2022-09-27T06:18:37;21.50;54.80
23377;DHT22;14353;46.070;13.222;2022-09-27T06:21:04;21.50;54.60
23377;DHT22;14353;46.070;13.222;2022-09-27T06:23:40;21.60;54.50
23377;DHT22;14353;46.070;13.222;2022-09-27T06:26:06;21.60;54.40
23377;DHT22;14353;46.070;13.222;2022-09-27T06:28:37;21.60;54.20
23377;DHT22;14353;46.070;13.222;2022-09-27T06:31:07;21.60;54.20
23377;DHT22;14353;46.070;13.222;2022-09-27T06:33:34;21.60;54.10
23377;DHT22;14353;46.070;13.222;2022-09-27T06:36:01;21.70;54.00
23377;DHT22;14353;46.070;13.222;2022-09-27T06:38:28;21.70;54.00
23377;DHT22;14353;46.070;13.222;2022-09-27T06:40:54;21.70;54.00
23377;DHT22;14353;46.070;13.222;2022-09-27T06:43:22;21.80;53.90
23377;DHT22;14353;46.070;13.222;2022-09-27T06:45:49;21.80;53.80
23377;DHT22;14353;46.070;13.222;2022-09-27T06:48:16;21.80;53.80
23377;DHT22;14353;46.070;13.222;2022-09-27T06:50:46;21.80;53.60
23377;DHT22;14353;46.070;13.222;2022-09-27T06:53:18;21.90;53.50
23377;DHT22;14353;46.070;13.222;2022-09-27T06:55:47;21.90;53.50
23377;DHT22;14353;46.070;13.222;2022-09-27T06:58:13;21.90;53.40
23377;DHT22;14353;46.070;13.222;2022-09-27T07:00:58;21.90;53.40
23377;DHT22;14353;46.070;13.222;2022-09-27T07:03:28;21.90;53.40
23377;DHT22;14353;46.070;13.222;2022-09-27T07:06:04;21.90;53.20
23377;DHT22;14353;46.070;13.222;2022-09-27T07:08:31;21.90;53.20
23377;DHT22;14353;46.070;13.222;2022-09-27T07:11:05;21.90;53.30
23377;DHT22;14353;46.070;13.222;2022-09-27T07:13:39;21.90;53.20
23377;DHT22;14353;46.070;13.222;2022-09-27T07:16:24;21.90;53.20
23377;DHT22;14353;46.070;13.222;2022-09-27T07:19:02;21.80;53.20
23377;DHT22;14353;46.070;13.222;2022-09-27T07:21:39;21.80;53.30
23377;DHT22;14353;46.070;13.222;2022-09-27T07:24:08;21.80;53.20
23377;DHT22;14353;46.070;13.222;2022-09-27T07:26:37;21.80;53.20
23377;DHT22;14353;46.070;13.222;2022-09-27T07:29:03;21.80;53.30
23377;DHT22;14353;46.070;13.222;2022-09-27T07:31:30;21.80;53.30
23377;DHT22;14353;46.070;13.222;2022-09-27T07:33:59;21.80;53.30
23377;DHT22;14353;46.070;13.222;2022-09-27T07:36:25;21.80;53.30
23377;DHT22;14353;46.070;13.222;2022-09-27T07:38:51;21.80;53.30
23377;DHT22;14353;46.070;13.222;2022-09-27T07:41:21;21.80;53.10
23377;DHT22;14353;46.070;13.222;2022-09-27T07:46:39;21.80;53.00
23377;DHT22;14353;46.070;13.222;2022-09-27T07:49:10;21.80;52.90
23377;DHT22;14353;46.070;13.222;2022-09-27T07:51:39;21.80;52.90
23377;DHT22;14353;46.070;13.222;2022-09-27T07:54:15;21.80;52.90
23377;DHT22;14353;46.070;13.222;2022-09-27T07:59:33;21.80;52.80
23377;DHT22;14353;46.070;13.222;2022-09-27T08:02:04;21.80;53.10
23377;DHT22;14353;46.070;13.222;2022-09-27T08:04:37;21.80;52.90
23377;DHT22;14353;46.070;13.222;2022-09-27T08:07:09;21.80;52.90
23377;DHT22;14353;46.070;13.222;2022-09-27T08:09:48;21.80;53.20
23377;DHT22;14353;46.070;13.222;2022-09-27T08:12:21;21.80;53.40
23377;DHT22;14353;46.070;13.222;2022-09-27T08:14:51;21.80;53.80
23377;DHT22;14353;46.070;13.222;2022-09-27T08:17:19;21.80;53.80
23377;DHT22;14353;46.070;13.222;2022-09-27T08:19:48;21.80;54.10
23377;DHT22;14353;46.070;13.222;2022-09-27T08:22:32;21.80;54.30
23377;DHT22;14353;46.070;13.222;2022-09-27T08:25:02;21.80;54.40
23377;DHT22;14353;46.070;13.222;2022-09-27T08:27:35;21.80;54.40
23377;DHT22;14353;46.070;13.222;2022-09-27T08:30:16;21.80;54.70
23377;DHT22;14353;46.070;13.222;2022-09-27T08:32:44;21.80;55.10
23377;DHT22;14353;46.070;13.222;2022-09-27T08:35:10;21.80;55.60
23377;DHT22;14353;46.070;13.222;2022-09-27T08:37:52;21.80;55.30
23377;DHT22;14353;46.070;13.222;2022-09-27T08:40:54;21.80;55.10
23377;DHT22;14353;46.070;13.222;2022-09-27T08:43:45;21.80;56.00
23377;DHT22;14353;46.070;13.222;2022-09-27T08:49:09;21.80;56.20
23377;DHT22;14353;46.070;13.222;2022-09-27T08:51:40;21.80;55.80
23377;DHT22;14353;46.070;13.222;2022-09-27T08:54:20;21.90;55.70
23377;DHT22;14353;46.070;13.222;2022-09-27T08:57:04;21.90;55.20
23377;DHT22;14353;46.070;13.222;2022-09-27T08:59:54;21.90;55.20
23377;DHT22;14353;46.070;13.222;2022-09-27T09:02:25;22.00;55.50
23377;DHT22;14353;46.070;13.222;2022-09-27T09:04:56;22.00;55.40
23377;DHT22;14353;46.070;13.222;2022-09-27T09:21:58;21.90;56.10
23377;DHT22;14353;46.070;13.222;2022-09-27T09:24:48;21.90;56.80
23377;DHT22;14353;46.070;13.222;2022-09-27T09:27:33;21.90;56.90
23377;DHT22;14353;46.070;13.222;2022-09-27T09:30:19;21.90;56.80
23377;DHT22;14353;46.070;13.222;2022-09-27T09:33:06;22.00;56.10
23377;DHT22;14353;46.070;13.222;2022-09-27T09:35:46;22.10;56.10
23377;DHT22;14353;46.070;13.222;2022-09-27T09:38:19;22.20;56.00
23377;DHT22;14353;46.070;13.222;2022-09-27T09:40:57;22.30;55.90
23377;DHT22;14353;46.070;13.222;2022-09-27T09:43:30;22.30;55.60
23377;DHT22;14353;46.070;13.222;2022-09-27T09:46:04;22.50;55.30
23377;DHT22;14353;46.070;13.222;2022-09-27T09:48:38;22.60;54.80
23377;DHT22;14353;46.070;13.222;2022-09-27T09:51:13;22.80;54.00
23377;DHT22;14353;46.070;13.222;2022-09-27T09:53:53;22.90;53.50
23377;DHT22;14353;46.070;13.222;2022-09-27T09:56:41;23.00;53.10
23377;DHT22;14353;46.070;13.222;2022-09-27T09:59:17;23.10;52.80
23377;DHT22;14353;46.070;13.222;2022-09-27T10:01:46;23.20;52.20
23377;DHT22;14353;46.070;13.222;2022-09-27T10:04:25;23.30;52.90
23377;DHT22;14353;46.070;13.222;2022-09-27T10:07:08;23.20;52.80
23377;DHT22;14353;46.070;13.222;2022-09-27T10:09:41;23.10;54.20
23377;DHT22;14353;46.070;13.222;2022-09-27T10:12:12;23.00;55.00
23377;DHT22;14353;46.070;13.222;2022-09-27T10:14:42;23.00;55.60
23377;DHT22;14353;46.070;13.222;2022-09-27T10:17:13;22.90;55.80
23377;DHT22;14353;46.070;13.222;2022-09-27T10:19:43;22.80;56.10
23377;DHT22;14353;46.070;13.222;2022-09-27T10:22:48;22.80;56.40
23377;DHT22;14353;46.070;13.222;2022-09-27T10:25:23;22.70;57.00
23377;DHT22;14353;46.070;13.222;2022-09-27T10:27:54;22.70;57.20
23377;DHT22;14353;46.070;13.222;2022-09-27T10:30:32;22.60;57.30
23377;DHT22;14353;46.070;13.222;2022-09-27T10:33:16;22.60;57.60
23377;DHT22;14353;46.070;13.222;2022-09-27T10:35:45;22.70;57.40
23377;DHT22;14353;46.070;13.222;2022-09-27T10:38:26;22.70;57.50
23377;DHT22;14353;46.070;13.222;2022-09-27T10:40:58;22.60;57.60
23377;DHT22;14353;46.070;13.222;2022-09-27T10:43:48;22.60;57.70
23377;DHT22;14353;46.070;13.222;2022-09-27T10:46:27;22.60;57.90
23377;DHT22;14353;46.070;13.222;2022-09-27T10:49:21;22.50;58.00
23377;DHT22;14353;46.070;13.222;2022-09-27T10:52:20;22.50;58.20
23377;DHT22;14353;46.070;13.222;2022-09-27T10:54:57;22.60;58.20
23377;DHT22;14353;46.070;13.222;2022-09-27T10:57:29;22.60;58.20
23377;DHT22;14353;46.070;13.222;2022-09-27T11:00:06;22.70;58.00
23377;DHT22;14353;46.070;13.222;2022-09-27T11:02:37;22.80;57.80
23377;DHT22;14353;46.070;13.222;2022-09-27T11:05:11;22.90;57.10
23377;DHT22;14353;46.070;13.222;2022-09-27T11:11:19;23.30;56.00
23377;DHT22;14353;46.070;13.222;2022-09-27T11:14:03;23.40;55.50
23377;DHT22;14353;46.070;13.222;2022-09-27T11:20:04;23.60;54.70
23377;DHT22;14353;46.070;13.222;2022-09-27T11:23:13;23.80;54.20
23377;DHT22;14353;46.070;13.222;2022-09-27T11:26:03;23.90;53.40
23377;DHT22;14353;46.070;13.222;2022-09-27T11:28:56;23.90;53.50
23377;DHT22;14353;46.070;13.222;2022-09-27T11:31:51;23.90;53.20
23377;DHT22;14353;46.070;13.222;2022-09-27T11:40:19;23.90;52.80
23377;DHT22;14353;46.070;13.222;2022-09-27T11:43:14;23.80;52.40
23377;DHT22;14353;46.070;13.222;2022-09-27T12:04:27;23.80;53.40
23377;DHT22;14353;46.070;13.222;2022-09-27T12:09:54;23.90;53.00
23377;DHT22;14353;46.070;13.222;2022-09-27T12:12:25;23.90;52.50
23377;DHT22;14353;46.070;13.222;2022-09-27T12:14:59;23.80;52.40
23377;DHT22;14353;46.070;13.222;2022-09-27T12:17:32;23.80;52.90
23377;DHT22;14353;46.070;13.222;2022-09-27T12:20:20;23.90;52.10
23377;DHT22;14353;46.070;13.222;2022-09-27T12:25:17;24.10;50.50
23377;DHT22;14353;46.070;13.222;2022-09-27T12:30:40;24.20;50.70
23377;DHT22;14353;46.070;13.222;2022-09-27T12:33:17;23.90;49.70
23377;DHT22;14353;46.070;13.222;2022-09-27T12:35:52;23.80;50.40
23377;DHT22;14353;46.070;13.222;2022-09-27T12:39:03;23.80;50.90
23377;DHT22;14353;46.070;13.222;2022-09-27T12:41:13;23.80;49.70
23377;DHT22;14353;46.070;13.222;2022-09-27T12:43:42;23.70;50.90
23377;DHT22;14353;46.070;13.222;2022-09-27T12:46:14;23.60;49.60
23377;DHT22;14353;46.070;13.222;2022-09-27T12:51:23;23.40;50.40
23377;DHT22;14353;46.070;13.222;2022-09-27T12:57:00;23.50;50.40
23377;DHT22;14353;46.070;13.222;2022-09-27T12:59:57;23.50;46.90
23377;DHT22;14353;46.070;13.222;2022-09-27T13:08:39;22.80;49.80
23377;DHT22;14353;46.070;13.222;2022-09-27T13:13:59;22.60;50.70
23377;DHT22;14353;46.070;13.222;2022-09-27T13:16:28;22.50;50.70
23377;DHT22;14353;46.070;13.222;2022-09-27T13:18:59;22.40;51.10
23377;DHT22;14353;46.070;13.222;2022-09-27T13:21:53;22.40;50.90
23377;DHT22;14353;46.070;13.222;2022-09-27T13:24:46;22.30;50.50
23377;DHT22;14353;46.070;13.222;2022-09-27T13:29:51;22.20;51.20
23377;DHT22;14353;46.070;13.222;2022-09-27T13:34:52;22.20;51.60
23377;DHT22;14353;46.070;13.222;2022-09-27T13:40:38;22.20;51.10
23377;DHT22;14353;46.070;13.222;2022-09-27T13:45:47;22.30;51.60
23377;DHT22;14353;46.070;13.222;2022-09-27T13:51:13;22.40;51.10
23377;DHT22;14353;46.070;13.222;2022-09-27T13:53:56;22.40;51.30
23377;DHT22;14353;46.070;13.222;2022-09-27T13:59:35;22.50;51.10
23377;DHT22;14353;46.070;13.222;2022-09-27T14:02:22;22.60;50.70
23377;DHT22;14353;46.070;13.222;2022-09-27T14:04:51;22.60;50.40
23377;DHT22;14353;46.070;13.222;2022-09-27T14:07:22;22.70;50.00
23377;DHT22;14353;46.070;13.222;2022-09-27T14:09:56;22.80;48.80
23377;DHT22;14353;46.070;13.222;2022-09-27T14:12:50;22.80;49.00
23377;DHT22;14353;46.070;13.222;2022-09-27T14:15:26;22.80;49.00
23377;DHT22;14353;46.070;13.222;2022-09-27T14:17:57;22.90;49.90
23377;DHT22;14353;46.070;13.222;2022-09-27T14:20:45;22.90;49.00
23377;DHT22;14353;46.070;13.222;2022-09-27T14:23:21;22.90;49.30
23377;DHT22;14353;46.070;13.222;2022-09-27T14:25:51;22.90;49.90
23377;DHT22;14353;46.070;13.222;2022-09-27T14:28:27;22.90;49.40
23377;DHT22;14353;46.070;13.222;2022-09-27T14:31:22;22.80;49.50
23377;DHT22;14353;46.070;13.222;2022-09-27T14:33:49;22.80;49.30
23377;DHT22;14353;46.070;13.222;2022-09-27T14:36:30;22.80;49.40
23377;DHT22;14353;46.070;13.222;2022-09-27T14:41:52;22.60;49.20
23377;DHT22;14353;46.070;13.222;2022-09-27T14:44:20;22.60;49.20
23377;DHT22;14353;46.070;13.222;2022-09-27T14:47:08;22.60;49.70
23377;DHT22;14353;46.070;13.222;2022-09-27T14:49:53;22.50;49.60
23377;DHT22;14353;46.070;13.222;2022-09-27T14:52:30;22.50;49.90
23377;DHT22;14353;46.070;13.222;2022-09-27T14:57:27;22.40;50.70
23377;DHT22;14353;46.070;13.222;2022-09-27T14:59:57;22.40;50.10
23377;DHT22;14353;46.070;13.222;2022-09-27T15:02:25;22.30;50.20
23377;DHT22;14353;46.070;13.222;2022-09-27T15:04:55;22.30;50.20
23377;DHT22;14353;46.070;13.222;2022-09-27T15:07:21;22.30;50.00
23377;DHT22;14353;46.070;13.222;2022-09-27T15:09:48;22.20;50.00
23377;DHT22;14353;46.070;13.222;2022-09-27T15:12:22;22.10;49.80
23377;DHT22;14353;46.070;13.222;2022-09-27T15:14:50;22.10;50.30
23377;DHT22;14353;46.070;13.222;2022-09-27T15:17:18;22.10;50.60
23377;DHT22;14353;46.070;13.222;2022-09-27T15:20:33;22.10;50.80
23377;DHT22;14353;46.070;13.222;2022-09-27T15:23:01;22.00;50.90
23377;DHT22;14353;46.070;13.222;2022-09-27T15:25:41;22.10;51.00
23377;DHT22;14353;46.070;13.222;2022-09-27T15:30:39;22.00;51.20
23377;DHT22;14353;46.070;13.222;2022-09-27T15:33:16;22.00;51.20
23377;DHT22;14353;46.070;13.222;2022-09-27T15:35:52;22.00;51.30
23377;DHT22;14353;46.070;13.222;2022-09-27T15:38:45;22.00;51.40
23377;DHT22;14353;46.070;13.222;2022-09-27T15:41:20;22.00;51.60
23377;DHT22;14353;46.070;13.222;2022-09-27T15:43:48;22.00;52.00
23377;DHT22;14353;46.070;13.222;2022-09-27T15:46:35;22.00;54.70
23377;DHT22;14353;46.070;13.222;2022-09-27T15:51:47;22.00;52.50
23377;DHT22;14353;46.070;13.222;2022-09-27T15:54:17;22.00;52.40
23377;DHT22;14353;46.070;13.222;2022-09-27T15:56:43;22.00;52.40
23377;DHT22;14353;46.070;13.222;2022-09-27T15:59:22;22.00;52.30
23377;DHT22;14353;46.070;13.222;2022-09-27T16:01:48;22.00;52.10
23377;DHT22;14353;46.070;13.222;2022-09-27T16:04:15;22.00;52.10
23377;DHT22;14353;46.070;13.222;2022-09-27T16:06:41;22.00;52.00
23377;DHT22;14353;46.070;13.222;2022-09-27T16:09:13;22.00;52.00
23377;DHT22;14353;46.070;13.222;2022-09-27T16:11:42;22.00;52.00
23377;DHT22;14353;46.070;13.222;2022-09-27T16:14:08;22.00;52.00
23377;DHT22;14353;46.070;13.222;2022-09-27T16:16:34;22.00;52.00
23377;DHT22;14353;46.070;13.222;2022-09-27T16:18:59;22.00;52.00
23377;DHT22;14353;46.070;13.222;2022-09-27T16:21:25;22.00;52.00
23377;DHT22;14353;46.070;13.222;2022-09-27T16:23:51;22.00;52.00
23377;DHT22;14353;46.070;13.222;2022-09-27T16:26:17;22.00;52.00
23377;DHT22;14353;46.070;13.222;2022-09-27T16:28:44;22.00;52.00
23377;DHT22;14353;46.070;13.222;2022-09-27T16:31:11;22.00;52.00
23377;DHT22;14353;46.070;13.222;2022-09-27T16:33:38;21.90;52.00
23377;DHT22;14353;46.070;13.222;2022-09-27T16:36:06;21.90;52.00
23377;DHT22;14353;46.070;13.222;2022-09-27T16:38:40;21.90;52.00
23377;DHT22;14353;46.070;13.222;2022-09-27T16:41:06;21.90;52.00
23377;DHT22;14353;46.070;13.222;2022-09-27T16:43:31;21.90;52.00
23377;DHT22;14353;46.070;13.222;2022-09-27T16:46:06;21.90;52.00
23377;DHT22;14353;46.070;13.222;2022-09-27T16:48:36;21.90;52.00
23377;DHT22;14353;46.070;13.222;2022-09-27T16:51:04;21.90;52.00
23377;DHT22;14353;46.070;13.222;2022-09-27T16:53:48;21.90;52.00
23377;DHT22;14353;46.070;13.222;2022-09-27T16:56:14;21.80;52.00
23377;DHT22;14353;46.070;13.222;2022-09-27T16:58:43;21.80;52.00
23377;DHT22;14353;46.070;13.222;2022-09-27T17:01:09;21.80;52.10
23377;DHT22;14353;46.070;13.222;2022-09-27T17:03:37;21.80;52.10
23377;DHT22;14353;46.070;13.222;2022-09-27T17:06:03;21.80;52.10
23377;DHT22;14353;46.070;13.222;2022-09-27T17:08:29;21.80;52.10
23377;DHT22;14353;46.070;13.222;2022-09-27T17:10:55;21.80;52.10
23377;DHT22;14353;46.070;13.222;2022-09-27T17:13:22;21.80;52.00
23377;DHT22;14353;46.070;13.222;2022-09-27T17:15:48;21.80;52.10
23377;DHT22;14353;46.070;13.222;2022-09-27T17:18:14;21.80;52.10
23377;DHT22;14353;46.070;13.222;2022-09-27T17:20:40;21.80;52.10
23377;DHT22;14353;46.070;13.222;2022-09-27T17:23:09;21.80;52.10
23377;DHT22;14353;46.070;13.222;2022-09-27T17:25:35;21.80;52.10
23377;DHT22;14353;46.070;13.222;2022-09-27T17:28:03;21.70;52.10
23377;DHT22;14353;46.070;13.222;2022-09-27T17:30:29;21.70;52.10
23377;DHT22;14353;46.070;13.222;2022-09-27T17:32:55;21.70;52.10
23377;DHT22;14353;46.070;13.222;2022-09-27T17:35:22;21.70;52.10
23377;DHT22;14353;46.070;13.222;2022-09-27T17:37:48;21.70;52.10
23377;DHT22;14353;46.070;13.222;2022-09-27T17:40:15;21.70;52.10
23377;DHT22;14353;46.070;13.222;2022-09-27T17:42:45;21.70;52.10
23377;DHT22;14353;46.070;13.222;2022-09-27T17:45:10;21.70;52.20
23377;DHT22;14353;46.070;13.222;2022-09-27T17:47:36;21.70;52.10
23377;DHT22;14353;46.070;13.222;2022-09-27T17:50:20;21.70;52.20
23377;DHT22;14353;46.070;13.222;2022-09-27T17:52:52;21.70;52.20
23377;DHT22;14353;46.070;13.222;2022-09-27T17:55:19;21.70;52.20
23377;DHT22;14353;46.070;13.222;2022-09-27T17:57:46;21.70;52.10
23377;DHT22;14353;46.070;13.222;2022-09-27T18:00:16;21.70;52.20
23377;DHT22;14353;46.070;13.222;2022-09-27T18:02:42;21.70;52.20
23377;DHT22;14353;46.070;13.222;2022-09-27T18:05:09;21.60;52.10
23377;DHT22;14353;46.070;13.222;2022-09-27T18:07:35;21.60;52.20
23377;DHT22;14353;46.070;13.222;2022-09-27T18:10:02;21.60;52.10
23377;DHT22;14353;46.070;13.222;2022-09-27T18:12:28;21.60;52.20
23377;DHT22;14353;46.070;13.222;2022-09-27T18:15:06;21.60;52.20
23377;DHT22;14353;46.070;13.222;2022-09-27T18:17:32;21.60;52.10